createdAt,value
2023-05-05T00:01:14.700Z,14.00
2023-05-05T00:04:17.845Z,12.00
2023-05-05T00:07:20.149Z,14.40
2023-05-05T00:10:24.183Z,13.93
2023-05-05T00:13:26.096Z,14.35
2023-05-05T00:16:27.801Z,13.27
2023-05-05T00:19:29.920Z,16.63
2023-05-05T00:22:32.144Z,13.35
2023-05-05T00:25:34.365Z,15.05
2023-05-05T00:28:36.226Z,13.88
2023-05-05T00:31:38.798Z,12.17
2023-05-05T00:34:42.213Z,16.38
2023-05-05T00:37:44.384Z,13.88
2023-05-05T00:40:46.448Z,14.07
2023-05-05T00:43:48.779Z,14.98
2023-05-05T00:46:52.196Z,12.63
2023-05-05T00:49:54.062Z,14.10
2023-05-05T00:53:00.770Z,17.13
2023-05-05T00:56:03.920Z,12.50
2023-05-05T00:59:07.142Z,11.88
2023-05-05T01:02:10.572Z,12.60
2023-05-05T01:05:14.160Z,13.13
2023-05-05T01:08:36.405Z,12.93
2023-05-05T01:11:46.635Z,15.97
2023-05-05T01:14:59.246Z,13.70
2023-05-05T01:18:11.655Z,13.68
2023-05-05T01:21:31.671Z,14.90
2023-05-05T01:25:02.689Z,16.40
2023-05-05T01:28:25.032Z,14.73
2023-05-05T01:31:52.105Z,15.88
2023-05-05T01:34:57.559Z,15.07
2023-05-05T01:38:16.749Z,13.75
2023-05-05T01:41:27.579Z,15.27
2023-05-05T01:44:31.462Z,17.53
2023-05-05T01:47:33.835Z,15.27
2023-05-05T01:50:37.335Z,13.98
2023-05-05T01:53:41.722Z,16.92
2023-05-05T01:56:46.447Z,14.13
2023-05-05T01:59:51.612Z,15.60
2023-05-05T02:02:57.346Z,13.30
2023-05-05T02:06:02.060Z,15.80
2023-05-05T02:09:06.577Z,14.98
2023-05-05T02:12:09.552Z,13.85
2023-05-05T02:15:14.639Z,16.97
2023-05-05T02:18:18.322Z,13.48
2023-05-05T02:21:21.000Z,15.23
2023-05-05T02:24:23.296Z,13.90
2023-05-05T02:27:26.881Z,13.88
2023-05-05T02:30:42.389Z,16.42
2023-05-05T02:33:47.508Z,16.00
2023-05-05T02:36:53.460Z,15.30
2023-05-05T02:40:01.690Z,14.80
2023-05-05T02:43:11.404Z,14.50
2023-05-05T02:46:13.792Z,14.13
2023-05-05T02:49:19.911Z,15.65
2023-05-05T02:52:23.008Z,17.08
2023-05-05T02:55:42.985Z,15.52
2023-05-05T02:58:54.902Z,15.00
2023-05-05T03:02:25.272Z,15.10
2023-05-05T03:05:35.265Z,14.93
2023-05-05T03:09:13.890Z,14.67
2023-05-05T03:12:22.412Z,18.33
2023-05-05T03:15:50.050Z,16.58
2023-05-05T03:19:07.325Z,15.57
2023-05-05T03:22:10.718Z,13.20
2023-05-05T03:25:17.445Z,17.77
2023-05-05T03:28:20.436Z,15.32
2023-05-05T03:31:24.375Z,15.10
2023-05-05T03:34:30.056Z,15.70
2023-05-05T03:37:34.272Z,15.57
2023-05-05T03:40:44.141Z,12.67
2023-05-05T03:43:50.559Z,13.40
2023-05-05T03:46:52.447Z,16.70
2023-05-05T03:49:55.311Z,15.73
2023-05-05T03:52:57.089Z,15.80
2023-05-05T03:55:59.691Z,15.02
2023-05-05T03:59:01.313Z,14.93
2023-05-05T04:02:04.668Z,16.63
2023-05-05T04:05:06.401Z,15.50
2023-05-05T04:08:08.602Z,14.77
2023-05-05T04:11:19.891Z,17.00
2023-05-05T04:14:25.587Z,16.88
2023-05-05T04:17:28.219Z,17.25
2023-05-05T04:20:33.926Z,13.70
2023-05-05T04:23:35.784Z,14.30
2023-05-05T04:26:38.435Z,15.15
2023-05-05T04:29:41.154Z,15.77
2023-05-05T04:32:43.136Z,15.95
2023-05-05T04:35:45.684Z,16.05
2023-05-05T04:38:50.451Z,15.80
2023-05-05T04:41:53.465Z,17.43
2023-05-05T04:44:56.505Z,17.13
2023-05-05T04:48:00.262Z,18.63
2023-05-05T04:51:08.289Z,15.93
2023-05-05T04:54:11.518Z,14.85
2023-05-05T04:57:13.520Z,14.93
2023-05-05T05:00:16.882Z,17.15
2023-05-05T05:03:19.111Z,15.02
2023-05-05T05:06:22.145Z,16.92
2023-05-05T05:09:27.395Z,14.07
2023-05-05T05:12:33.374Z,14.90
2023-05-05T05:15:38.383Z,15.05
2023-05-05T05:18:41.024Z,15.05
2023-05-05T05:21:43.144Z,13.33
2023-05-05T05:24:45.324Z,14.68
2023-05-05T05:28:02.009Z,16.10
2023-05-05T05:31:12.055Z,15.35
2023-05-05T05:34:16.986Z,13.88
2023-05-05T05:37:20.631Z,15.30
2023-05-05T05:40:25.467Z,15.63
2023-05-05T05:43:31.114Z,15.63
2023-05-05T05:46:35.905Z,15.60
2023-05-05T05:49:38.852Z,17.20
2023-05-05T05:52:43.296Z,15.75
2023-05-05T05:55:48.102Z,14.35
2023-05-05T05:59:01.510Z,15.45
2023-05-05T06:02:08.226Z,14.65
2023-05-05T06:05:13.581Z,14.40
2023-05-05T06:08:17.352Z,15.55
2023-05-05T06:11:26.908Z,13.32
2023-05-05T06:14:32.564Z,13.30
2023-05-05T06:17:35.576Z,13.48
2023-05-05T06:20:40.269Z,15.00
2023-05-05T06:23:47.272Z,14.27
2023-05-05T06:27:01.225Z,14.98
2023-05-05T06:30:09.791Z,15.15
2023-05-05T06:33:12.575Z,15.57
2023-05-05T06:36:19.045Z,15.43
2023-05-05T06:39:23.013Z,13.90
2023-05-05T06:42:25.785Z,15.25
2023-05-05T06:45:31.134Z,13.82
2023-05-05T06:48:35.202Z,13.70
2023-05-05T06:51:36.822Z,15.02
2023-05-05T06:54:41.053Z,13.45
2023-05-05T06:57:43.343Z,13.73
2023-05-05T07:00:48.948Z,11.65
2023-05-05T07:04:00.160Z,14.07
2023-05-05T07:07:06.157Z,12.25
2023-05-05T07:10:09.643Z,11.97
2023-05-05T07:13:21.064Z,11.40
2023-05-05T07:16:25.402Z,13.45
2023-05-05T07:19:28.619Z,11.00
2023-05-05T07:22:31.370Z,14.60
2023-05-05T07:25:34.918Z,13.88
2023-05-05T07:28:40.958Z,10.82
2023-05-05T07:31:45.018Z,13.20
2023-05-05T07:34:47.447Z,11.82
2023-05-05T07:37:52.187Z,11.63
2023-05-05T07:40:56.987Z,9.75
2023-05-05T07:44:04.414Z,10.68
2023-05-05T07:47:07.621Z,9.30
2023-05-05T07:50:10.674Z,16.00
2023-05-05T07:53:14.908Z,10.10
2023-05-05T07:56:21.572Z,9.63
2023-05-05T07:59:26.637Z,9.55
2023-05-05T08:02:28.555Z,10.77
2023-05-05T08:05:33.613Z,8.77
2023-05-05T08:08:36.447Z,10.40
2023-05-05T08:11:51.733Z,10.43
2023-05-05T08:15:03.142Z,9.80
2023-05-05T08:18:15.144Z,12.02
2023-05-05T08:21:22.825Z,9.48
2023-05-05T08:24:26.105Z,10.53
2023-05-05T08:27:28.453Z,9.40
2023-05-05T08:30:31.916Z,10.77
2023-05-05T08:33:33.791Z,12.35
2023-05-05T08:36:36.610Z,10.23
2023-05-05T08:39:39.432Z,10.17
2023-05-05T08:42:48.860Z,9.73
2023-05-05T08:45:56.355Z,10.77
2023-05-05T08:49:03.945Z,10.32
2023-05-05T08:52:10.172Z,13.15
2023-05-05T08:55:23.655Z,9.17
2023-05-05T08:58:30.754Z,11.48
2023-05-05T09:01:37.562Z,8.82
2023-05-05T09:04:40.904Z,8.50
2023-05-05T09:07:47.231Z,10.38
2023-05-05T09:10:51.342Z,8.57
2023-05-05T09:14:02.339Z,8.65
2023-05-05T09:17:06.039Z,9.13
2023-05-05T09:20:13.811Z,8.77
2023-05-05T09:23:26.698Z,10.68
2023-05-05T09:26:36.507Z,8.57
2023-05-05T09:29:42.750Z,9.63
2023-05-05T09:32:55.594Z,8.52
2023-05-05T09:35:57.602Z,8.95
2023-05-05T09:39:14.936Z,9.05
2023-05-05T09:42:20.410Z,9.43
2023-05-05T09:45:28.138Z,9.18
2023-05-05T09:48:32.368Z,10.18
2023-05-05T09:51:34.265Z,8.25
2023-05-05T09:54:42.618Z,10.82
2023-05-05T09:57:47.625Z,8.30
2023-05-05T10:00:53.423Z,7.63
2023-05-05T10:03:55.252Z,8.55
2023-05-05T10:07:00.933Z,8.50
2023-05-05T10:10:07.446Z,9.88
2023-05-05T10:13:11.519Z,9.70
2023-05-05T10:16:18.564Z,10.45
2023-05-05T10:19:24.324Z,9.25
2023-05-05T10:22:31.113Z,8.60
2023-05-05T10:25:51.293Z,8.48
2023-05-05T10:29:04.147Z,6.90
2023-05-05T10:32:50.169Z,6.75
2023-05-05T10:35:56.646Z,7.90
2023-05-05T10:39:04.554Z,7.68
2023-05-05T10:42:29.858Z,11.23
2023-05-05T10:45:40.428Z,9.73
2023-05-05T10:49:03.031Z,9.02
2023-05-05T10:52:12.266Z,7.82
2023-05-05T10:56:01.862Z,8.90
2023-05-05T10:59:25.425Z,9.75
2023-05-05T11:02:31.678Z,7.97
2023-05-05T11:05:35.422Z,8.13
2023-05-05T11:08:45.570Z,7.68
2023-05-05T11:12:10.869Z,8.27
2023-05-05T11:15:31.899Z,10.55
2023-05-05T11:18:38.357Z,8.00
2023-05-05T11:22:07.415Z,8.63
2023-05-05T11:25:47.261Z,9.88
2023-05-05T11:28:59.561Z,7.80
2023-05-05T11:32:14.110Z,9.93
2023-05-05T11:35:16.267Z,8.30
2023-05-05T11:38:41.618Z,9.07
2023-05-05T11:42:10.139Z,9.57
2023-05-05T11:45:26.746Z,7.97
2023-05-05T11:48:28.925Z,9.25
2023-05-05T11:51:35.052Z,7.83
2023-05-05T11:54:41.316Z,9.43
2023-05-05T11:57:42.936Z,8.35
2023-05-05T12:00:46.027Z,7.30
2023-05-05T12:03:49.532Z,8.40
2023-05-05T12:06:52.279Z,7.93
2023-05-05T12:09:55.826Z,8.93
2023-05-05T12:12:59.666Z,7.30
2023-05-05T12:16:17.741Z,8.20
2023-05-05T12:19:19.467Z,7.75
2023-05-05T12:22:31.893Z,7.37
2023-05-05T12:25:41.421Z,7.00
2023-05-05T12:28:47.468Z,9.10
2023-05-05T12:32:00.832Z,7.68
2023-05-05T12:35:06.569Z,8.75
2023-05-05T12:38:08.352Z,9.57
2023-05-05T12:41:11.285Z,10.87
2023-05-05T12:44:14.356Z,8.68
2023-05-05T12:47:33.093Z,9.20
2023-05-05T12:50:34.945Z,9.68
2023-05-05T12:53:40.148Z,9.70
2023-05-05T12:56:47.485Z,8.30
2023-05-05T13:00:00.499Z,9.48
2023-05-05T13:03:03.560Z,9.48
2023-05-05T13:06:42.151Z,9.30
2023-05-05T13:09:47.627Z,8.80
2023-05-05T13:12:49.716Z,8.13
2023-05-05T13:15:54.184Z,11.68
2023-05-05T13:19:03.684Z,11.20
2023-05-05T13:22:19.297Z,8.13
2023-05-05T13:25:21.739Z,7.30
2023-05-05T13:28:24.540Z,8.63
2023-05-05T13:31:27.748Z,10.52
2023-05-05T13:34:31.586Z,9.07
2023-05-05T13:37:36.981Z,7.57
2023-05-05T13:40:39.697Z,9.20
2023-05-05T13:43:47.363Z,7.77
2023-05-05T13:46:52.493Z,9.85
2023-05-05T13:49:58.894Z,11.25
2023-05-05T13:53:01.569Z,9.48
2023-05-05T13:56:03.534Z,8.80
2023-05-05T13:59:06.350Z,8.60
2023-05-05T14:02:12.513Z,10.60
2023-05-05T14:05:15.875Z,8.88
2023-05-05T14:08:20.300Z,7.78
2023-05-05T14:11:23.280Z,8.97
2023-05-05T14:14:25.690Z,9.27
2023-05-05T14:17:28.497Z,11.25
2023-05-05T14:20:32.318Z,8.40
2023-05-05T14:23:34.040Z,8.85
2023-05-05T14:26:36.020Z,9.57
2023-05-05T14:29:38.741Z,8.87
2023-05-05T14:32:41.984Z,6.90
2023-05-05T14:35:44.963Z,7.43
2023-05-05T14:38:55.393Z,6.35
2023-05-05T14:41:57.737Z,8.40
2023-05-05T14:45:03.747Z,7.70
2023-05-05T14:48:05.922Z,8.07
2023-05-05T14:51:07.515Z,7.68
2023-05-05T14:54:24.172Z,10.15
2023-05-05T14:57:32.896Z,8.97
2023-05-05T15:00:37.057Z,7.70
2023-05-05T15:03:39.737Z,7.97
2023-05-05T15:06:46.644Z,7.25
2023-05-05T15:09:53.390Z,8.85
2023-05-05T15:13:01.950Z,7.87
2023-05-05T15:16:10.868Z,7.17
2023-05-05T15:19:23.610Z,7.88
2023-05-05T15:25:51.578Z,7.20
2023-05-05T15:28:57.931Z,10.27
2023-05-05T15:32:01.572Z,7.07
2023-05-05T15:35:07.510Z,8.65
2023-05-05T15:38:10.375Z,6.57
2023-05-05T15:41:13.677Z,7.88
2023-05-05T15:44:18.295Z,6.43
2023-05-05T15:47:20.723Z,8.80
2023-05-05T15:50:23.713Z,10.63
2023-05-05T15:53:26.794Z,9.85
2023-05-05T15:56:30.075Z,8.05
2023-05-05T15:59:32.870Z,9.90
2023-05-05T16:02:36.070Z,8.93
2023-05-05T16:05:40.403Z,7.97
2023-05-05T16:08:43.756Z,10.32
2023-05-05T16:11:45.339Z,15.30
2023-05-05T16:14:48.248Z,10.77
2023-05-05T16:17:54.175Z,9.30
2023-05-05T16:20:56.404Z,9.13
2023-05-05T16:23:58.109Z,8.20
2023-05-05T16:27:00.846Z,8.20
2023-05-05T16:30:02.852Z,7.13
2023-05-05T16:33:04.558Z,8.37
2023-05-05T16:36:10.221Z,8.93
2023-05-05T16:39:12.580Z,12.13
2023-05-05T16:42:14.820Z,12.55
2023-05-05T16:45:16.906Z,12.70
2023-05-05T16:48:18.610Z,15.33
2023-05-05T16:51:30.779Z,19.45
2023-05-05T16:54:35.001Z,17.75
2023-05-05T16:57:39.545Z,17.40
2023-05-05T17:00:55.071Z,13.47
2023-05-05T17:04:01.859Z,22.00
2023-05-05T17:07:03.946Z,11.40
2023-05-05T17:10:07.585Z,12.93
2023-05-05T17:13:12.033Z,13.65
2023-05-05T17:16:13.832Z,17.43
2023-05-05T17:19:29.557Z,17.03
2023-05-05T17:22:35.019Z,14.95
2023-05-05T17:25:40.231Z,13.65
2023-05-05T17:28:43.289Z,11.35
2023-05-05T17:31:50.263Z,10.43
2023-05-05T17:34:54.497Z,10.98
2023-05-05T17:37:57.627Z,13.50
2023-05-05T17:41:28.424Z,11.57
2023-05-05T17:44:35.823Z,10.48
2023-05-05T17:47:40.349Z,11.73
2023-05-05T17:50:46.825Z,10.25
2023-05-05T17:54:00.378Z,13.73
2023-05-05T17:57:04.917Z,10.05
2023-05-05T18:00:11.254Z,13.10
2023-05-05T18:03:22.568Z,13.93
2023-05-05T18:06:29.866Z,14.30
2023-05-05T18:09:34.413Z,15.23
2023-05-05T18:12:39.336Z,12.20
2023-05-05T18:15:45.598Z,12.50
2023-05-05T18:18:57.373Z,9.87
2023-05-05T18:22:03.531Z,9.88
2023-05-05T18:25:08.034Z,6.88
2023-05-05T18:28:21.482Z,6.93
2023-05-05T18:31:27.313Z,6.45
2023-05-05T18:34:31.536Z,7.27
2023-05-05T18:40:51.529Z,6.88
2023-05-05T18:43:55.295Z,5.70
2023-05-05T18:47:00.670Z,5.63
2023-05-05T18:50:05.780Z,7.00
2023-05-05T18:53:13.776Z,8.07
2023-05-05T18:56:19.496Z,6.30
2023-05-05T18:59:24.799Z,6.72
2023-05-05T19:02:30.190Z,6.57
2023-05-05T19:05:32.023Z,7.67
2023-05-05T19:08:35.493Z,7.55
2023-05-05T19:11:42.112Z,7.28
2023-05-05T19:14:53.375Z,8.93
2023-05-05T19:18:18.530Z,11.45
2023-05-05T19:21:21.478Z,8.25
2023-05-05T19:24:34.527Z,9.35
2023-05-05T19:27:41.462Z,9.27
2023-05-05T19:30:54.380Z,8.05
2023-05-05T19:34:04.737Z,8.27
2023-05-05T19:37:08.696Z,9.95
2023-05-05T19:40:11.775Z,8.90
2023-05-05T19:43:18.657Z,11.48
2023-05-05T19:46:32.700Z,10.23
2023-05-05T19:49:38.775Z,11.03
2023-05-05T19:52:41.990Z,10.88
2023-05-05T19:55:50.528Z,9.07
2023-05-05T19:59:05.551Z,10.13
2023-05-05T20:02:28.178Z,10.52
2023-05-05T20:05:34.080Z,11.10
2023-05-05T20:08:41.141Z,8.45
2023-05-05T20:11:43.512Z,7.95
2023-05-05T20:14:50.187Z,8.13
2023-05-05T20:17:51.949Z,8.53
2023-05-05T20:20:54.110Z,8.60
2023-05-05T20:23:55.927Z,7.50
2023-05-05T20:26:58.045Z,8.50
2023-05-05T20:30:03.070Z,10.80
2023-05-05T20:33:05.073Z,7.75
2023-05-05T20:36:07.345Z,10.50
2023-05-05T20:39:14.637Z,8.93
2023-05-05T20:42:17.032Z,9.33
2023-05-05T20:45:18.819Z,10.75
2023-05-05T20:48:20.967Z,8.75
2023-05-05T20:51:22.692Z,9.40
2023-05-05T20:54:24.769Z,7.45
2023-05-05T20:57:27.188Z,9.00
2023-05-05T21:00:28.840Z,9.30
2023-05-05T21:03:32.668Z,8.65
2023-05-05T21:06:34.516Z,10.70
2023-05-05T21:09:36.636Z,9.88
2023-05-05T21:12:41.922Z,9.27
2023-05-05T21:15:43.992Z,9.35
2023-05-05T21:18:47.293Z,10.07
2023-05-05T21:21:49.541Z,9.48
2023-05-05T21:24:51.244Z,8.68
2023-05-05T21:27:53.379Z,8.48
2023-05-05T21:31:10.154Z,8.13
2023-05-05T21:34:18.175Z,9.52
2023-05-05T21:37:20.239Z,8.88
2023-05-05T21:40:22.627Z,8.88
2023-05-05T21:43:25.957Z,9.80
2023-05-05T21:46:27.634Z,8.43
2023-05-05T21:49:29.771Z,9.25
2023-05-05T21:52:31.944Z,8.25
2023-05-05T21:55:33.727Z,7.70
2023-05-05T21:58:35.896Z,10.38
2023-05-05T22:01:37.708Z,8.70
2023-05-05T22:04:40.095Z,10.85
2023-05-05T22:07:42.161Z,10.03
2023-05-05T22:10:43.761Z,11.52
2023-05-05T22:13:46.723Z,10.25
2023-05-05T22:16:48.314Z,10.15
2023-05-05T22:19:51.499Z,9.90
2023-05-05T22:22:53.061Z,9.43
2023-05-05T22:25:55.320Z,10.00
2023-05-05T22:28:57.693Z,10.90
2023-05-05T22:31:59.847Z,10.70
2023-05-05T22:35:01.922Z,10.27
2023-05-05T22:38:04.313Z,9.82
2023-05-05T22:41:07.430Z,11.98
2023-05-05T22:44:10.310Z,11.23
2023-05-05T22:47:13.225Z,11.82
2023-05-05T22:50:15.531Z,9.63
2023-05-05T22:53:20.907Z,10.10
2023-05-05T22:56:23.394Z,11.40
2023-05-05T22:59:25.673Z,11.43
2023-05-05T23:02:27.479Z,10.57
2023-05-05T23:05:29.205Z,10.35
2023-05-05T23:08:33.598Z,8.75
2023-05-05T23:11:36.246Z,9.38
2023-05-05T23:14:38.456Z,11.20
2023-05-05T23:17:40.069Z,9.43
2023-05-05T23:20:42.159Z,10.27
2023-05-05T23:23:45.661Z,10.95
2023-05-05T23:26:47.350Z,11.32
2023-05-05T23:29:51.137Z,9.63
2023-05-05T23:32:53.274Z,12.27
2023-05-05T23:35:54.869Z,11.90
2023-05-05T23:38:56.445Z,11.48
2023-05-05T23:41:58.113Z,9.97
2023-05-05T23:45:00.298Z,9.68
2023-05-05T23:48:04.597Z,10.25
2023-05-05T23:51:06.241Z,11.90
2023-05-05T23:54:07.932Z,11.97
2023-05-05T23:57:10.576Z,11.95
